Terminal Aerodrome Forecast
Issued by NWS

Home | Current Version | Previous Version | Text Only | Print | Product List | Glossary On
Versions: 1 2 3 4 5 6 7 8 9 10 11 12 13 14 15 16 17 18 19 20 21 22 23
580
FTUS46 KMFR 240635 AAB
TAFOTH
TAF AMD
KOTH 240635Z 2407/2506 01012G20KT P6SM SCT014
      TEMPO 2407/2410 BKN014
     FM241000 02011KT P6SM SCT015
     FM241800 36015G23KT P6SM SKC
     FM242100 36025G35KT P6SM SKC=

USA.gov is the U.S. government's official web portal to all federal, state and local government web resources and services.